sensor_id;sensor_type;location;lat;lon;timestamp;P1;durP1;ratioP1;P2;durP2;ratioP2
37339;SDS011;23223;51.006;7.610;2023-07-20T00:01:40;5.72;;;2.08;;
37339;SDS011;23223;51.006;7.610;2023-07-20T00:04:09;2.45;;;1.60;;
37339;SDS011;23223;51.006;7.610;2023-07-20T00:06:35;4.72;;;2.05;;
37339;SDS011;23223;51.006;7.610;2023-07-20T00:09:05;8.27;;;2.33;;
37339;SDS011;23223;51.006;7.610;2023-07-20T00:11:35;2.30;;;1.80;;
37339;SDS011;23223;51.006;7.610;2023-07-20T00:14:02;3.58;;;2.10;;
37339;SDS011;23223;51.006;7.610;2023-07-20T00:16:29;6.22;;;1.98;;
37339;SDS011;23223;51.006;7.610;2023-07-20T00:18:54;5.47;;;1.65;;
37339;SDS011;23223;51.006;7.610;2023-07-20T00:21:20;4.65;;;1.85;;
37339;SDS011;23223;51.006;7.610;2023-07-20T00:23:45;4.90;;;2.10;;
37339;SDS011;23223;51.006;7.610;2023-07-20T00:26:11;3.95;;;1.90;;
37339;SDS011;23223;51.006;7.610;2023-07-20T00:28:37;8.02;;;2.50;;
37339;SDS011;23223;51.006;7.610;2023-07-20T00:31:02;3.28;;;1.60;;
37339;SDS011;23223;51.006;7.610;2023-07-20T00:33:29;7.00;;;2.17;;
37339;SDS011;23223;51.006;7.610;2023-07-20T00:35:54;4.25;;;2.00;;
37339;SDS011;23223;51.006;7.610;2023-07-20T00:38:20;4.10;;;1.92;;
37339;SDS011;23223;51.006;7.610;2023-07-20T00:40:46;4.63;;;1.92;;
37339;SDS011;23223;51.006;7.610;2023-07-20T00:43:11;5.07;;;2.35;;
37339;SDS011;23223;51.006;7.610;2023-07-20T00:45:37;5.60;;;2.20;;
37339;SDS011;23223;51.006;7.610;2023-07-20T00:48:03;7.25;;;1.95;;
37339;SDS011;23223;51.006;7.610;2023-07-20T00:50:31;3.33;;;2.15;;
37339;SDS011;23223;51.006;7.610;2023-07-20T00:52:58;2.03;;;1.58;;
37339;SDS011;23223;51.006;7.610;2023-07-20T00:55:24;3.70;;;2.13;;
37339;SDS011;23223;51.006;7.610;2023-07-20T00:57:51;5.60;;;2.13;;
37339;SDS011;23223;51.006;7.610;2023-07-20T01:00:17;8.60;;;2.67;;
37339;SDS011;23223;51.006;7.610;2023-07-20T01:02:43;5.35;;;2.03;;
37339;SDS011;23223;51.006;7.610;2023-07-20T01:05:09;2.65;;;1.60;;
37339;SDS011;23223;51.006;7.610;2023-07-20T01:07:43;7.38;;;1.95;;
37339;SDS011;23223;51.006;7.610;2023-07-20T01:10:18;2.92;;;2.03;;
37339;SDS011;23223;51.006;7.610;2023-07-20T01:12:51;5.25;;;2.35;;
37339;SDS011;23223;51.006;7.610;2023-07-20T01:15:18;5.95;;;2.42;;
37339;SDS011;23223;51.006;7.610;2023-07-20T01:17:43;5.78;;;2.42;;
37339;SDS011;23223;51.006;7.610;2023-07-20T01:20:10;3.92;;;1.90;;
37339;SDS011;23223;51.006;7.610;2023-07-20T01:31:27;11.40;;;3.03;;
37339;SDS011;23223;51.006;7.610;2023-07-20T01:33:56;8.68;;;2.40;;
37339;SDS011;23223;51.006;7.610;2023-07-20T01:36:23;5.80;;;2.20;;
37339;SDS011;23223;51.006;7.610;2023-07-20T01:38:51;4.57;;;2.08;;
37339;SDS011;23223;51.006;7.610;2023-07-20T01:41:17;5.65;;;3.15;;
37339;SDS011;23223;51.006;7.610;2023-07-20T01:43:43;5.03;;;2.30;;
37339;SDS011;23223;51.006;7.610;2023-07-20T01:46:08;4.43;;;2.08;;
37339;SDS011;23223;51.006;7.610;2023-07-20T01:48:34;4.95;;;2.50;;
37339;SDS011;23223;51.006;7.610;2023-07-20T01:51:00;6.43;;;2.40;;
37339;SDS011;23223;51.006;7.610;2023-07-20T01:53:25;5.20;;;2.65;;
37339;SDS011;23223;51.006;7.610;2023-07-20T01:55:54;5.78;;;2.42;;
37339;SDS011;23223;51.006;7.610;2023-07-20T01:58:20;7.55;;;2.53;;
37339;SDS011;23223;51.006;7.610;2023-07-20T02:00:45;2.47;;;1.73;;
37339;SDS011;23223;51.006;7.610;2023-07-20T02:03:11;2.05;;;1.70;;
37339;SDS011;23223;51.006;7.610;2023-07-20T02:05:37;6.03;;;2.53;;
37339;SDS011;23223;51.006;7.610;2023-07-20T02:08:03;6.03;;;2.05;;
37339;SDS011;23223;51.006;7.610;2023-07-20T02:10:28;3.20;;;2.03;;
37339;SDS011;23223;51.006;7.610;2023-07-20T02:12:54;7.65;;;2.42;;
37339;SDS011;23223;51.006;7.610;2023-07-20T02:15:20;5.28;;;2.25;;
37339;SDS011;23223;51.006;7.610;2023-07-20T02:17:46;5.40;;;2.10;;
37339;SDS011;23223;51.006;7.610;2023-07-20T02:20:12;5.78;;;2.38;;
37339;SDS011;23223;51.006;7.610;2023-07-20T02:22:37;5.93;;;2.92;;
37339;SDS011;23223;51.006;7.610;2023-07-20T02:25:04;4.45;;;2.83;;
37339;SDS011;23223;51.006;7.610;2023-07-20T02:27:30;5.22;;;2.38;;
37339;SDS011;23223;51.006;7.610;2023-07-20T02:29:56;7.55;;;2.67;;
37339;SDS011;23223;51.006;7.610;2023-07-20T02:32:21;5.93;;;2.63;;
37339;SDS011;23223;51.006;7.610;2023-07-20T02:34:47;4.45;;;2.45;;
37339;SDS011;23223;51.006;7.610;2023-07-20T02:37:13;3.83;;;2.45;;
37339;SDS011;23223;51.006;7.610;2023-07-20T02:39:38;5.38;;;2.55;;
37339;SDS011;23223;51.006;7.610;2023-07-20T02:42:04;2.63;;;1.80;;
37339;SDS011;23223;51.006;7.610;2023-07-20T02:44:31;5.47;;;2.42;;
37339;SDS011;23223;51.006;7.610;2023-07-20T02:46:56;5.15;;;2.88;;
37339;SDS011;23223;51.006;7.610;2023-07-20T02:49:22;8.60;;;2.55;;
37339;SDS011;23223;51.006;7.610;2023-07-20T02:51:47;4.90;;;2.50;;
37339;SDS011;23223;51.006;7.610;2023-07-20T02:54:13;6.60;;;2.45;;
37339;SDS011;23223;51.006;7.610;2023-07-20T02:56:39;4.43;;;2.75;;
37339;SDS011;23223;51.006;7.610;2023-07-20T02:59:05;8.23;;;2.88;;
37339;SDS011;23223;51.006;7.610;2023-07-20T03:01:30;4.78;;;2.58;;
37339;SDS011;23223;51.006;7.610;2023-07-20T03:03:56;2.85;;;2.25;;
37339;SDS011;23223;51.006;7.610;2023-07-20T03:06:22;4.93;;;2.22;;
37339;SDS011;23223;51.006;7.610;2023-07-20T03:08:48;5.05;;;2.50;;
37339;SDS011;23223;51.006;7.610;2023-07-20T03:11:17;3.22;;;2.25;;
37339;SDS011;23223;51.006;7.610;2023-07-20T03:13:43;2.95;;;2.00;;
37339;SDS011;23223;51.006;7.610;2023-07-20T03:16:10;3.25;;;1.80;;
37339;SDS011;23223;51.006;7.610;2023-07-20T03:18:39;2.22;;;1.85;;
37339;SDS011;23223;51.006;7.610;2023-07-20T03:21:05;5.80;;;1.98;;
37339;SDS011;23223;51.006;7.610;2023-07-20T03:23:32;3.75;;;2.22;;
37339;SDS011;23223;51.006;7.610;2023-07-20T03:25:58;6.80;;;2.58;;
37339;SDS011;23223;51.006;7.610;2023-07-20T03:28:23;4.90;;;2.50;;
37339;SDS011;23223;51.006;7.610;2023-07-20T03:30:55;4.65;;;2.40;;
37339;SDS011;23223;51.006;7.610;2023-07-20T03:33:22;4.25;;;2.88;;
37339;SDS011;23223;51.006;7.610;2023-07-20T03:35:50;8.05;;;2.40;;
37339;SDS011;23223;51.006;7.610;2023-07-20T03:38:15;7.55;;;2.33;;
37339;SDS011;23223;51.006;7.610;2023-07-20T03:40:48;6.00;;;2.47;;
37339;SDS011;23223;51.006;7.610;2023-07-20T03:43:18;11.32;;;3.15;;
37339;SDS011;23223;51.006;7.610;2023-07-20T03:45:44;4.93;;;2.90;;
37339;SDS011;23223;51.006;7.610;2023-07-20T03:48:13;5.82;;;2.97;;
37339;SDS011;23223;51.006;7.610;2023-07-20T03:50:44;4.65;;;2.85;;
37339;SDS011;23223;51.006;7.610;2023-07-20T03:53:10;9.77;;;2.92;;
37339;SDS011;23223;51.006;7.610;2023-07-20T03:55:36;5.10;;;2.40;;
37339;SDS011;23223;51.006;7.610;2023-07-20T03:58:02;6.28;;;2.78;;
37339;SDS011;23223;51.006;7.610;2023-07-20T04:00:28;6.50;;;2.58;;
37339;SDS011;23223;51.006;7.610;2023-07-20T04:02:54;3.50;;;2.03;;
37339;SDS011;23223;51.006;7.610;2023-07-20T04:05:19;4.75;;;2.33;;
37339;SDS011;23223;51.006;7.610;2023-07-20T04:07:45;3.35;;;2.10;;
37339;SDS011;23223;51.006;7.610;2023-07-20T04:10:11;8.13;;;3.08;;
37339;SDS011;23223;51.006;7.610;2023-07-20T04:12:36;6.35;;;2.88;;
37339;SDS011;23223;51.006;7.610;2023-07-20T04:15:02;2.70;;;1.70;;
37339;SDS011;23223;51.006;7.610;2023-07-20T04:17:28;5.85;;;2.42;;
37339;SDS011;23223;51.006;7.610;2023-07-20T04:19:54;6.85;;;2.55;;
37339;SDS011;23223;51.006;7.610;2023-07-20T04:22:19;6.32;;;2.80;;
37339;SDS011;23223;51.006;7.610;2023-07-20T04:24:46;4.80;;;1.90;;
37339;SDS011;23223;51.006;7.610;2023-07-20T04:27:11;7.15;;;2.28;;
37339;SDS011;23223;51.006;7.610;2023-07-20T04:29:37;8.85;;;3.42;;
37339;SDS011;23223;51.006;7.610;2023-07-20T04:32:02;5.25;;;2.05;;
37339;SDS011;23223;51.006;7.610;2023-07-20T04:34:28;5.22;;;2.88;;
37339;SDS011;23223;51.006;7.610;2023-07-20T04:36:54;4.00;;;2.42;;
37339;SDS011;23223;51.006;7.610;2023-07-20T04:39:19;5.47;;;2.90;;
37339;SDS011;23223;51.006;7.610;2023-07-20T04:41:45;3.00;;;2.50;;
37339;SDS011;23223;51.006;7.610;2023-07-20T04:44:10;3.78;;;2.85;;
37339;SDS011;23223;51.006;7.610;2023-07-20T04:46:36;7.85;;;4.00;;
37339;SDS011;23223;51.006;7.610;2023-07-20T04:49:01;8.27;;;3.15;;
37339;SDS011;23223;51.006;7.610;2023-07-20T04:51:27;9.90;;;3.28;;
37339;SDS011;23223;51.006;7.610;2023-07-20T04:53:55;7.45;;;4.43;;
37339;SDS011;23223;51.006;7.610;2023-07-20T04:56:21;5.68;;;2.65;;
37339;SDS011;23223;51.006;7.610;2023-07-20T04:58:48;8.10;;;2.90;;
37339;SDS011;23223;51.006;7.610;2023-07-20T05:01:13;7.55;;;3.03;;
37339;SDS011;23223;51.006;7.610;2023-07-20T05:03:39;5.30;;;2.95;;
37339;SDS011;23223;51.006;7.610;2023-07-20T05:06:05;6.50;;;4.25;;
37339;SDS011;23223;51.006;7.610;2023-07-20T05:08:30;8.88;;;3.78;;
37339;SDS011;23223;51.006;7.610;2023-07-20T05:10:56;6.90;;;4.70;;
37339;SDS011;23223;51.006;7.610;2023-07-20T05:13:21;8.88;;;4.60;;
37339;SDS011;23223;51.006;7.610;2023-07-20T05:15:50;9.60;;;4.95;;
37339;SDS011;23223;51.006;7.610;2023-07-20T05:18:19;7.47;;;5.10;;
37339;SDS011;23223;51.006;7.610;2023-07-20T05:20:48;9.07;;;5.15;;
37339;SDS011;23223;51.006;7.610;2023-07-20T05:23:17;18.75;;;6.28;;
37339;SDS011;23223;51.006;7.610;2023-07-20T05:25:43;10.00;;;6.30;;
37339;SDS011;23223;51.006;7.610;2023-07-20T05:28:08;11.50;;;5.05;;
37339;SDS011;23223;51.006;7.610;2023-07-20T05:30:34;6.25;;;3.67;;
37339;SDS011;23223;51.006;7.610;2023-07-20T05:33:00;9.52;;;6.15;;
37339;SDS011;23223;51.006;7.610;2023-07-20T05:35:26;9.68;;;4.50;;
37339;SDS011;23223;51.006;7.610;2023-07-20T05:37:51;7.18;;;4.97;;
37339;SDS011;23223;51.006;7.610;2023-07-20T05:40:17;6.78;;;5.75;;
37339;SDS011;23223;51.006;7.610;2023-07-20T05:42:47;6.88;;;4.22;;
37339;SDS011;23223;51.006;7.610;2023-07-20T05:45:17;7.80;;;3.72;;
37339;SDS011;23223;51.006;7.610;2023-07-20T05:47:43;12.23;;;7.05;;
37339;SDS011;23223;51.006;7.610;2023-07-20T05:50:09;10.55;;;7.13;;
37339;SDS011;23223;51.006;7.610;2023-07-20T05:52:35;14.85;;;5.25;;
37339;SDS011;23223;51.006;7.610;2023-07-20T05:55:01;8.20;;;6.30;;
37339;SDS011;23223;51.006;7.610;2023-07-20T05:57:26;12.20;;;5.97;;
37339;SDS011;23223;51.006;7.610;2023-07-20T05:59:52;9.23;;;4.28;;
37339;SDS011;23223;51.006;7.610;2023-07-20T06:02:18;11.30;;;5.18;;
37339;SDS011;23223;51.006;7.610;2023-07-20T06:04:43;4.75;;;3.20;;
37339;SDS011;23223;51.006;7.610;2023-07-20T06:07:09;6.35;;;3.80;;
37339;SDS011;23223;51.006;7.610;2023-07-20T06:09:35;10.48;;;5.57;;
37339;SDS011;23223;51.006;7.610;2023-07-20T06:12:01;14.18;;;5.60;;
37339;SDS011;23223;51.006;7.610;2023-07-20T06:14:26;5.80;;;3.22;;
37339;SDS011;23223;51.006;7.610;2023-07-20T06:16:52;7.63;;;3.42;;
37339;SDS011;23223;51.006;7.610;2023-07-20T06:19:17;7.75;;;4.25;;
37339;SDS011;23223;51.006;7.610;2023-07-20T06:21:43;12.00;;;5.20;;
37339;SDS011;23223;51.006;7.610;2023-07-20T06:24:09;6.65;;;4.25;;
37339;SDS011;23223;51.006;7.610;2023-07-20T06:26:34;9.27;;;5.28;;
37339;SDS011;23223;51.006;7.610;2023-07-20T06:29:04;9.15;;;4.65;;
37339;SDS011;23223;51.006;7.610;2023-07-20T06:31:31;6.47;;;4.28;;
37339;SDS011;23223;51.006;7.610;2023-07-20T06:34:00;5.88;;;3.80;;
37339;SDS011;23223;51.006;7.610;2023-07-20T06:36:26;12.07;;;6.32;;
37339;SDS011;23223;51.006;7.610;2023-07-20T06:38:51;7.30;;;4.30;;
37339;SDS011;23223;51.006;7.610;2023-07-20T06:41:18;7.93;;;3.50;;
37339;SDS011;23223;51.006;7.610;2023-07-20T06:43:44;8.10;;;5.13;;
37339;SDS011;23223;51.006;7.610;2023-07-20T06:46:10;5.53;;;2.97;;
37339;SDS011;23223;51.006;7.610;2023-07-20T06:48:35;7.10;;;3.53;;
37339;SDS011;23223;51.006;7.610;2023-07-20T06:51:01;5.63;;;3.83;;
37339;SDS011;23223;51.006;7.610;2023-07-20T06:53:27;6.95;;;4.10;;
37339;SDS011;23223;51.006;7.610;2023-07-20T06:55:53;7.65;;;3.72;;
37339;SDS011;23223;51.006;7.610;2023-07-20T06:58:19;7.50;;;3.25;;
37339;SDS011;23223;51.006;7.610;2023-07-20T07:00:46;5.32;;;3.33;;
37339;SDS011;23223;51.006;7.610;2023-07-20T07:03:12;5.60;;;3.50;;
37339;SDS011;23223;51.006;7.610;2023-07-20T07:05:37;4.88;;;3.33;;
37339;SDS011;23223;51.006;7.610;2023-07-20T07:08:04;5.47;;;3.80;;
37339;SDS011;23223;51.006;7.610;2023-07-20T07:10:29;8.60;;;5.38;;
37339;SDS011;23223;51.006;7.610;2023-07-20T07:12:55;9.73;;;5.88;;
37339;SDS011;23223;51.006;7.610;2023-07-20T07:15:21;7.50;;;4.00;;
37339;SDS011;23223;51.006;7.610;2023-07-20T07:17:46;7.35;;;4.18;;
37339;SDS011;23223;51.006;7.610;2023-07-20T07:20:12;3.55;;;2.75;;
37339;SDS011;23223;51.006;7.610;2023-07-20T07:22:37;9.90;;;4.93;;
37339;SDS011;23223;51.006;7.610;2023-07-20T07:25:03;7.78;;;3.72;;
37339;SDS011;23223;51.006;7.610;2023-07-20T07:27:29;7.43;;;5.25;;
37339;SDS011;23223;51.006;7.610;2023-07-20T07:29:55;5.38;;;3.30;;
37339;SDS011;23223;51.006;7.610;2023-07-20T07:32:20;4.07;;;3.35;;
37339;SDS011;23223;51.006;7.610;2023-07-20T07:34:46;6.05;;;4.50;;
37339;SDS011;23223;51.006;7.610;2023-07-20T07:37:12;6.93;;;4.88;;
37339;SDS011;23223;51.006;7.610;2023-07-20T07:39:38;9.23;;;4.07;;
37339;SDS011;23223;51.006;7.610;2023-07-20T07:42:04;6.53;;;4.93;;
37339;SDS011;23223;51.006;7.610;2023-07-20T07:44:30;6.32;;;5.70;;
37339;SDS011;23223;51.006;7.610;2023-07-20T07:46:56;8.43;;;4.82;;
37339;SDS011;23223;51.006;7.610;2023-07-20T07:49:22;9.13;;;4.68;;
37339;SDS011;23223;51.006;7.610;2023-07-20T07:51:47;7.10;;;5.40;;
37339;SDS011;23223;51.006;7.610;2023-07-20T07:54:13;9.05;;;5.40;;
37339;SDS011;23223;51.006;7.610;2023-07-20T07:56:39;6.47;;;4.13;;
37339;SDS011;23223;51.006;7.610;2023-07-20T07:59:05;5.75;;;4.80;;
37339;SDS011;23223;51.006;7.610;2023-07-20T08:01:31;8.63;;;4.57;;
37339;SDS011;23223;51.006;7.610;2023-07-20T08:03:57;6.53;;;3.90;;
37339;SDS011;23223;51.006;7.610;2023-07-20T08:06:23;8.27;;;4.93;;
37339;SDS011;23223;51.006;7.610;2023-07-20T08:08:49;5.78;;;3.70;;
37339;SDS011;23223;51.006;7.610;2023-07-20T08:11:15;7.88;;;4.20;;
37339;SDS011;23223;51.006;7.610;2023-07-20T08:13:41;6.65;;;5.13;;
37339;SDS011;23223;51.006;7.610;2023-07-20T08:16:07;2.95;;;2.65;;
37339;SDS011;23223;51.006;7.610;2023-07-20T08:18:32;6.53;;;4.88;;
37339;SDS011;23223;51.006;7.610;2023-07-20T08:20:58;4.75;;;4.00;;
37339;SDS011;23223;51.006;7.610;2023-07-20T08:23:23;5.60;;;3.63;;
37339;SDS011;23223;51.006;7.610;2023-07-20T08:25:49;3.97;;;2.80;;
37339;SDS011;23223;51.006;7.610;2023-07-20T08:28:15;3.63;;;2.42;;
37339;SDS011;23223;51.006;7.610;2023-07-20T08:30:48;3.47;;;3.17;;
37339;SDS011;23223;51.006;7.610;2023-07-20T08:33:15;5.55;;;3.60;;
37339;SDS011;23223;51.006;7.610;2023-07-20T08:35:44;6.70;;;3.75;;
37339;SDS011;23223;51.006;7.610;2023-07-20T08:38:10;4.57;;;2.95;;
37339;SDS011;23223;51.006;7.610;2023-07-20T08:40:54;6.90;;;4.43;;
37339;SDS011;23223;51.006;7.610;2023-07-20T08:43:20;5.43;;;3.70;;
37339;SDS011;23223;51.006;7.610;2023-07-20T08:45:49;3.53;;;2.90;;
37339;SDS011;23223;51.006;7.610;2023-07-20T08:48:16;6.18;;;3.70;;
37339;SDS011;23223;51.006;7.610;2023-07-20T08:50:44;5.75;;;3.30;;
37339;SDS011;23223;51.006;7.610;2023-07-20T08:53:12;6.07;;;2.88;;
37339;SDS011;23223;51.006;7.610;2023-07-20T08:55:39;10.10;;;3.85;;
37339;SDS011;23223;51.006;7.610;2023-07-20T08:58:05;5.18;;;3.22;;
37339;SDS011;23223;51.006;7.610;2023-07-20T09:00:33;6.63;;;4.65;;
37339;SDS011;23223;51.006;7.610;2023-07-20T09:03:00;5.53;;;3.92;;
37339;SDS011;23223;51.006;7.610;2023-07-20T09:05:28;3.10;;;2.78;;
37339;SDS011;23223;51.006;7.610;2023-07-20T09:07:55;5.47;;;3.90;;
37339;SDS011;23223;51.006;7.610;2023-07-20T09:10:21;4.80;;;2.88;;
37339;SDS011;23223;51.006;7.610;2023-07-20T09:12:47;4.70;;;3.00;;
37339;SDS011;23223;51.006;7.610;2023-07-20T09:15:13;2.92;;;2.63;;
37339;SDS011;23223;51.006;7.610;2023-07-20T09:17:38;9.95;;;3.65;;
37339;SDS011;23223;51.006;7.610;2023-07-20T09:20:07;3.25;;;2.95;;
37339;SDS011;23223;51.006;7.610;2023-07-20T09:22:36;2.88;;;2.58;;
37339;SDS011;23223;51.006;7.610;2023-07-20T09:27:41;8.80;;;4.82;;
37339;SDS011;23223;51.006;7.610;2023-07-20T09:30:08;6.35;;;4.03;;
37339;SDS011;23223;51.006;7.610;2023-07-20T09:32:48;3.85;;;3.47;;
37339;SDS011;23223;51.006;7.610;2023-07-20T09:35:20;5.38;;;4.07;;
37339;SDS011;23223;51.006;7.610;2023-07-20T09:38:00;6.93;;;4.13;;
37339;SDS011;23223;51.006;7.610;2023-07-20T09:40:27;7.55;;;4.45;;
37339;SDS011;23223;51.006;7.610;2023-07-20T09:42:53;3.70;;;3.17;;
37339;SDS011;23223;51.006;7.610;2023-07-20T09:45:35;6.38;;;3.88;;
37339;SDS011;23223;51.006;7.610;2023-07-20T09:48:05;5.88;;;3.35;;
37339;SDS011;23223;51.006;7.610;2023-07-20T09:50:31;4.38;;;3.70;;
37339;SDS011;23223;51.006;7.610;2023-07-20T09:53:07;6.28;;;3.35;;
37339;SDS011;23223;51.006;7.610;2023-07-20T09:55:39;3.70;;;2.38;;
37339;SDS011;23223;51.006;7.610;2023-07-20T09:58:15;3.95;;;2.90;;
37339;SDS011;23223;51.006;7.610;2023-07-20T10:00:42;6.80;;;3.30;;
37339;SDS011;23223;51.006;7.610;2023-07-20T10:03:12;3.55;;;2.40;;
37339;SDS011;23223;51.006;7.610;2023-07-20T10:05:43;4.95;;;3.55;;
37339;SDS011;23223;51.006;7.610;2023-07-20T10:08:12;4.35;;;3.30;;
37339;SDS011;23223;51.006;7.610;2023-07-20T10:10:41;4.95;;;2.65;;
37339;SDS011;23223;51.006;7.610;2023-07-20T10:13:10;3.30;;;2.50;;
37339;SDS011;23223;51.006;7.610;2023-07-20T10:15:50;3.00;;;2.08;;
37339;SDS011;23223;51.006;7.610;2023-07-20T10:21:17;7.05;;;4.07;;
37339;SDS011;23223;51.006;7.610;2023-07-20T10:23:44;3.95;;;3.17;;
37339;SDS011;23223;51.006;7.610;2023-07-20T10:26:10;4.13;;;2.58;;
37339;SDS011;23223;51.006;7.610;2023-07-20T10:28:37;3.55;;;2.47;;
37339;SDS011;23223;51.006;7.610;2023-07-20T10:31:04;3.58;;;3.13;;
37339;SDS011;23223;51.006;7.610;2023-07-20T10:33:32;3.08;;;2.78;;
37339;SDS011;23223;51.006;7.610;2023-07-20T10:36:01;4.43;;;3.50;;
37339;SDS011;23223;51.006;7.610;2023-07-20T10:44:04;3.72;;;3.42;;
37339;SDS011;23223;51.006;7.610;2023-07-20T10:49:07;3.95;;;3.45;;
37339;SDS011;23223;51.006;7.610;2023-07-20T10:54:11;5.10;;;3.20;;
37339;SDS011;23223;51.006;7.610;2023-07-20T10:56:57;5.78;;;2.92;;
37339;SDS011;23223;51.006;7.610;2023-07-20T10:59:43;2.45;;;1.90;;
37339;SDS011;23223;51.006;7.610;2023-07-20T11:02:12;3.47;;;2.60;;
37339;SDS011;23223;51.006;7.610;2023-07-20T11:07:04;1.73;;;1.40;;
37339;SDS011;23223;51.006;7.610;2023-07-20T11:09:35;2.17;;;1.80;;
37339;SDS011;23223;51.006;7.610;2023-07-20T11:12:15;1.73;;;1.63;;
37339;SDS011;23223;51.006;7.610;2023-07-20T11:14:43;2.15;;;1.60;;
37339;SDS011;23223;51.006;7.610;2023-07-20T11:17:17;3.10;;;1.90;;
37339;SDS011;23223;51.006;7.610;2023-07-20T11:19:47;3.33;;;1.77;;
37339;SDS011;23223;51.006;7.610;2023-07-20T11:22:14;1.48;;;1.38;;
37339;SDS011;23223;51.006;7.610;2023-07-20T11:24:42;2.63;;;1.90;;
37339;SDS011;23223;51.006;7.610;2023-07-20T11:27:08;3.20;;;2.03;;
37339;SDS011;23223;51.006;7.610;2023-07-20T11:29:34;2.33;;;1.40;;
37339;SDS011;23223;51.006;7.610;2023-07-20T11:32:01;2.33;;;1.73;;
37339;SDS011;23223;51.006;7.610;2023-07-20T11:34:29;2.50;;;1.85;;
37339;SDS011;23223;51.006;7.610;2023-07-20T11:36:56;2.90;;;1.33;;
37339;SDS011;23223;51.006;7.610;2023-07-20T11:39:22;2.40;;;2.17;;
37339;SDS011;23223;51.006;7.610;2023-07-20T11:41:51;1.77;;;1.45;;
37339;SDS011;23223;51.006;7.610;2023-07-20T11:44:19;1.75;;;1.38;;
37339;SDS011;23223;51.006;7.610;2023-07-20T11:46:51;1.83;;;1.65;;
37339;SDS011;23223;51.006;7.610;2023-07-20T11:49:36;2.30;;;1.45;;
37339;SDS011;23223;51.006;7.610;2023-07-20T11:52:07;3.00;;;1.85;;
37339;SDS011;23223;51.006;7.610;2023-07-20T11:54:35;1.42;;;1.25;;
37339;SDS011;23223;51.006;7.610;2023-07-20T11:57:02;1.42;;;1.23;;
37339;SDS011;23223;51.006;7.610;2023-07-20T11:59:28;2.20;;;1.48;;
37339;SDS011;23223;51.006;7.610;2023-07-20T12:01:54;1.52;;;1.42;;
37339;SDS011;23223;51.006;7.610;2023-07-20T12:04:22;1.63;;;0.95;;
37339;SDS011;23223;51.006;7.610;2023-07-20T12:06:48;2.13;;;1.15;;
37339;SDS011;23223;51.006;7.610;2023-07-20T12:09:14;1.48;;;1.25;;
37339;SDS011;23223;51.006;7.610;2023-07-20T12:11:42;2.17;;;1.13;;
37339;SDS011;23223;51.006;7.610;2023-07-20T12:14:10;1.75;;;1.00;;
37339;SDS011;23223;51.006;7.610;2023-07-20T12:16:36;1.45;;;1.00;;
37339;SDS011;23223;51.006;7.610;2023-07-20T12:19:10;2.47;;;1.25;;
37339;SDS011;23223;51.006;7.610;2023-07-20T12:21:37;1.20;;;1.10;;
37339;SDS011;23223;51.006;7.610;2023-07-20T12:24:05;0.95;;;0.90;;
37339;SDS011;23223;51.006;7.610;2023-07-20T12:26:32;1.05;;;1.02;;
37339;SDS011;23223;51.006;7.610;2023-07-20T12:28:58;2.88;;;1.10;;
37339;SDS011;23223;51.006;7.610;2023-07-20T12:31:24;2.20;;;1.00;;
37339;SDS011;23223;51.006;7.610;2023-07-20T12:33:51;2.60;;;1.35;;
37339;SDS011;23223;51.006;7.610;2023-07-20T12:36:17;1.40;;;1.30;;
37339;SDS011;23223;51.006;7.610;2023-07-20T12:38:43;1.25;;;1.13;;
37339;SDS011;23223;51.006;7.610;2023-07-20T12:41:10;1.98;;;1.75;;
37339;SDS011;23223;51.006;7.610;2023-07-20T12:43:40;2.22;;;2.03;;
37339;SDS011;23223;51.006;7.610;2023-07-20T12:46:07;4.03;;;2.33;;
37339;SDS011;23223;51.006;7.610;2023-07-20T12:48:33;4.35;;;2.35;;
37339;SDS011;23223;51.006;7.610;2023-07-20T12:50:59;2.97;;;1.85;;
37339;SDS011;23223;51.006;7.610;2023-07-20T12:53:24;2.85;;;1.55;;
37339;SDS011;23223;51.006;7.610;2023-07-20T12:55:50;2.25;;;2.05;;
37339;SDS011;23223;51.006;7.610;2023-07-20T12:58:16;2.20;;;2.00;;
37339;SDS011;23223;51.006;7.610;2023-07-20T13:00:41;2.10;;;1.90;;
37339;SDS011;23223;51.006;7.610;2023-07-20T13:03:08;5.47;;;2.20;;
37339;SDS011;23223;51.006;7.610;2023-07-20T13:05:34;3.25;;;1.63;;
37339;SDS011;23223;51.006;7.610;2023-07-20T13:08:00;3.42;;;1.80;;
37339;SDS011;23223;51.006;7.610;2023-07-20T13:10:27;2.55;;;1.80;;
37339;SDS011;23223;51.006;7.610;2023-07-20T13:12:53;3.00;;;1.77;;
37339;SDS011;23223;51.006;7.610;2023-07-20T13:15:20;2.03;;;1.75;;
37339;SDS011;23223;51.006;7.610;2023-07-20T13:17:45;8.27;;;2.50;;
37339;SDS011;23223;51.006;7.610;2023-07-20T13:20:11;2.42;;;1.55;;
37339;SDS011;23223;51.006;7.610;2023-07-20T13:22:37;1.88;;;1.40;;
37339;SDS011;23223;51.006;7.610;2023-07-20T13:25:03;1.95;;;1.73;;
37339;SDS011;23223;51.006;7.610;2023-07-20T13:27:29;2.00;;;1.42;;
37339;SDS011;23223;51.006;7.610;2023-07-20T13:29:56;1.20;;;1.10;;
37339;SDS011;23223;51.006;7.610;2023-07-20T13:32:22;1.60;;;1.25;;
37339;SDS011;23223;51.006;7.610;2023-07-20T13:34:48;2.15;;;1.50;;
37339;SDS011;23223;51.006;7.610;2023-07-20T13:37:14;1.92;;;1.73;;
37339;SDS011;23223;51.006;7.610;2023-07-20T13:39:40;2.05;;;1.50;;
37339;SDS011;23223;51.006;7.610;2023-07-20T13:42:06;2.80;;;1.83;;
37339;SDS011;23223;51.006;7.610;2023-07-20T13:44:34;1.67;;;1.58;;
37339;SDS011;23223;51.006;7.610;2023-07-20T13:47:00;1.83;;;1.70;;
37339;SDS011;23223;51.006;7.610;2023-07-20T13:49:26;2.15;;;1.60;;
37339;SDS011;23223;51.006;7.610;2023-07-20T13:51:52;1.67;;;1.27;;
37339;SDS011;23223;51.006;7.610;2023-07-20T13:54:18;1.95;;;1.52;;
37339;SDS011;23223;51.006;7.610;2023-07-20T13:56:43;1.35;;;1.25;;
37339;SDS011;23223;51.006;7.610;2023-07-20T13:59:09;1.70;;;1.60;;
37339;SDS011;23223;51.006;7.610;2023-07-20T14:01:34;2.78;;;1.88;;
37339;SDS011;23223;51.006;7.610;2023-07-20T14:04:00;2.22;;;1.80;;
37339;SDS011;23223;51.006;7.610;2023-07-20T14:06:31;6.53;;;1.73;;
37339;SDS011;23223;51.006;7.610;2023-07-20T14:08:58;5.80;;;2.00;;
37339;SDS011;23223;51.006;7.610;2023-07-20T14:11:24;1.60;;;1.50;;
37339;SDS011;23223;51.006;7.610;2023-07-20T14:13:50;1.80;;;1.63;;
37339;SDS011;23223;51.006;7.610;2023-07-20T14:16:18;3.28;;;1.48;;
37339;SDS011;23223;51.006;7.610;2023-07-20T14:18:43;1.92;;;1.50;;
37339;SDS011;23223;51.006;7.610;2023-07-20T14:21:12;1.02;;;0.93;;
37339;SDS011;23223;51.006;7.610;2023-07-20T14:23:37;1.65;;;1.05;;
37339;SDS011;23223;51.006;7.610;2023-07-20T14:26:03;1.45;;;1.10;;
37339;SDS011;23223;51.006;7.610;2023-07-20T14:28:33;1.92;;;0.95;;
37339;SDS011;23223;51.006;7.610;2023-07-20T14:30:59;2.08;;;1.13;;
37339;SDS011;23223;51.006;7.610;2023-07-20T14:33:25;2.00;;;0.98;;
37339;SDS011;23223;51.006;7.610;2023-07-20T14:35:51;0.70;;;0.70;;
37339;SDS011;23223;51.006;7.610;2023-07-20T14:38:16;1.75;;;0.73;;
37339;SDS011;23223;51.006;7.610;2023-07-20T14:40:43;1.30;;;0.75;;
37339;SDS011;23223;51.006;7.610;2023-07-20T14:43:09;3.22;;;0.80;;
37339;SDS011;23223;51.006;7.610;2023-07-20T14:45:35;1.73;;;0.95;;
37339;SDS011;23223;51.006;7.610;2023-07-20T14:48:02;1.23;;;0.70;;
37339;SDS011;23223;51.006;7.610;2023-07-20T14:50:28;1.20;;;1.10;;
37339;SDS011;23223;51.006;7.610;2023-07-20T14:52:53;2.08;;;0.98;;
37339;SDS011;23223;51.006;7.610;2023-07-20T14:55:19;1.80;;;1.05;;
37339;SDS011;23223;51.006;7.610;2023-07-20T14:57:45;0.90;;;0.60;;
37339;SDS011;23223;51.006;7.610;2023-07-20T15:00:11;1.02;;;0.80;;
37339;SDS011;23223;51.006;7.610;2023-07-20T15:02:37;2.72;;;1.08;;
37339;SDS011;23223;51.006;7.610;2023-07-20T15:05:02;1.52;;;0.90;;
37339;SDS011;23223;51.006;7.610;2023-07-20T15:07:31;1.92;;;0.85;;
37339;SDS011;23223;51.006;7.610;2023-07-20T15:09:57;1.25;;;1.15;;
37339;SDS011;23223;51.006;7.610;2023-07-20T15:12:23;2.00;;;1.08;;
37339;SDS011;23223;51.006;7.610;2023-07-20T15:15:07;5.38;;;1.10;;